Flag for USA

Past Weather in 43°08'13.4"N, 86°15'55.5"W, USA — Yesterday and Last 2 Weeks

Currently: 41 °F. Passing clouds. (Weather station: Muskegon County Airport, USA). See more current weather

Past Weather in 43°08'13.4"N, 86°15'55.5"W — Graph

°F

43°08'13.4"N, 86°15'55.5"W Temperature Yesterday

Maximum temperature yesterday: 49 °F (at 2:21 pm)
Minimum temperature yesterday: 38 °F (at 5:55 am)
Average temperature yesterday: 42 °F

High & Low Weather Summary for the Past Weeks

 TemperatureHumidityPressure
High79 °F (Apr 7, 5:55 pm)90% (Apr 10, 8:55 am)30.59 "Hg (Apr 10, 8:55 am)
Low19 °F (Apr 2, 7:55 am)15% (Apr 4, 4:55 pm)29.33 "Hg (Apr 11, 3:55 am)
Average52 °F63%29.88 "Hg
* Reported Apr 2 7:55 am — Apr 17 7:55 am, 43°08'13.4"N, 86°15'55.5"W. Weather by CustomWeather, © 2021

Note: Actual official high and low records may vary slightly from our data, if they occured in-between our weather recording intervals... More about our weather records

43°08'13.4"N, 86°15'55.5"W Weather History for the Previous 24 Hours

Scroll right to see more
 ConditionsComfort  
Time TempWeatherWind HumidityBarometerVisibility
7:55 am
Sat, Apr 17
36 °FSunny.5 mph82%29.96 "Hg10 mi
6:55 am34 °FClear.6 mph82%29.95 "Hg10 mi
5:55 am35 °FClear.6 mph82%29.95 "Hg10 mi
4:55 am36 °FClear.6 mph79%29.95 "Hg10 mi
3:55 am36 °FClear.5 mph79%29.95 "Hg10 mi
2:55 am37 °FClear.5 mph79%29.95 "Hg10 mi
1:55 am39 °FClear.7 mph76%29.95 "Hg10 mi
12:55 am39 °FClear.7 mph73%29.96 "Hg10 mi
11:55 pm
Fri, Apr 16
40 °FClear.6 mph70%29.96 "Hg10 mi
10:55 pm40 °FClear.6 mph73%29.97 "Hg10 mi
9:55 pm40 °FPassing clouds.6 mph73%29.96 "Hg10 mi
8:55 pm42 °FPassing clouds.6 mph65%29.96 "Hg10 mi
7:55 pm46 °FScattered clouds.6 mph61%29.95 "Hg10 mi
6:55 pm47 °FScattered clouds.8 mph59%29.94 "Hg10 mi
5:55 pm45 °FScattered clouds.10 mph63%29.94 "Hg10 mi
4:55 pm45 °FPassing clouds.15 mph63%29.93 "Hg10 mi
3:55 pm49 °FPassing clouds.12 mph59%29.93 "Hg10 mi
2:55 pm49 °FScattered clouds.9 mph59%29.95 "Hg10 mi
2:21 pm49 °FScattered clouds.12 mph57%29.95 "Hg10 mi
1:55 pm47 °FOvercast.13 mph61%29.96 "Hg10 mi
12:55 pm44 °FOvercast.9 mph68%29.98 "Hg10 mi
11:55 am43 °FOvercast.15 mph68%29.98 "Hg10 mi
10:55 am43 °FOvercast.9 mph65%29.99 "Hg10 mi
10:12 am42 °FOvercast.9 mph68%29.97 "Hg10 mi
Weather by CustomWeather, © 2021

See weather overview